sensor_id;sensor_type;location;lat;lon;timestamp;P1;durP1;ratioP1;P2;durP2;ratioP2
42186;SDS011;27858;51.414;0.018;2022-07-18T16:01:21;3.42;;;3.00;;
42186;SDS011;27858;51.414;0.018;2022-07-18T16:03:48;6.00;;;2.78;;
42186;SDS011;27858;51.414;0.018;2022-07-18T16:06:15;2.75;;;2.55;;
42186;SDS011;27858;51.414;0.018;2022-07-18T16:08:42;3.17;;;2.88;;
42186;SDS011;27858;51.414;0.018;2022-07-18T16:11:10;4.30;;;2.72;;
42186;SDS011;27858;51.414;0.018;2022-07-18T16:13:37;2.65;;;2.45;;
42186;SDS011;27858;51.414;0.018;2022-07-18T16:16:04;3.38;;;2.83;;
42186;SDS011;27858;51.414;0.018;2022-07-18T16:18:31;2.97;;;2.75;;
42186;SDS011;27858;51.414;0.018;2022-07-18T16:20:58;3.92;;;2.60;;
42186;SDS011;27858;51.414;0.018;2022-07-18T16:23:25;5.10;;;2.95;;
42186;SDS011;27858;51.414;0.018;2022-07-18T16:25:52;3.08;;;2.88;;
42186;SDS011;27858;51.414;0.018;2022-07-18T16:28:18;2.90;;;2.70;;
42186;SDS011;27858;51.414;0.018;2022-07-18T16:30:45;4.72;;;3.42;;
42186;SDS011;27858;51.414;0.018;2022-07-18T16:33:12;2.78;;;2.58;;
42186;SDS011;27858;51.414;0.018;2022-07-18T16:35:44;3.58;;;2.83;;
42186;SDS011;27858;51.414;0.018;2022-07-18T16:38:13;3.55;;;2.95;;
42186;SDS011;27858;51.414;0.018;2022-07-18T16:40:41;4.82;;;2.53;;
42186;SDS011;27858;51.414;0.018;2022-07-18T16:43:09;3.65;;;2.53;;
42186;SDS011;27858;51.414;0.018;2022-07-18T16:45:36;2.35;;;2.13;;
42186;SDS011;27858;51.414;0.018;2022-07-18T16:48:04;3.00;;;2.33;;
42186;SDS011;27858;51.414;0.018;2022-07-18T16:50:31;6.28;;;2.80;;
42186;SDS011;27858;51.414;0.018;2022-07-18T16:52:58;4.80;;;3.45;;
42186;SDS011;27858;51.414;0.018;2022-07-18T16:55:26;3.90;;;2.50;;
42186;SDS011;27858;51.414;0.018;2022-07-18T16:57:53;5.43;;;2.70;;
42186;SDS011;27858;51.414;0.018;2022-07-18T17:00:20;5.63;;;3.00;;
42186;SDS011;27858;51.414;0.018;2022-07-18T17:02:48;2.20;;;2.00;;
42186;SDS011;27858;51.414;0.018;2022-07-18T17:05:15;3.15;;;2.72;;
42186;SDS011;27858;51.414;0.018;2022-07-18T17:07:44;2.92;;;2.60;;
42186;SDS011;27858;51.414;0.018;2022-07-18T17:10:13;5.18;;;2.72;;
42186;SDS011;27858;51.414;0.018;2022-07-18T17:12:41;2.45;;;2.25;;
42186;SDS011;27858;51.414;0.018;2022-07-18T17:15:08;2.25;;;1.98;;
42186;SDS011;27858;51.414;0.018;2022-07-18T17:17:35;3.22;;;2.50;;
42186;SDS011;27858;51.414;0.018;2022-07-18T17:20:03;2.70;;;2.50;;
42186;SDS011;27858;51.414;0.018;2022-07-18T17:22:32;3.95;;;2.30;;
42186;SDS011;27858;51.414;0.018;2022-07-18T17:25:00;9.95;;;2.88;;
42186;SDS011;27858;51.414;0.018;2022-07-18T17:27:28;4.10;;;2.60;;
42186;SDS011;27858;51.414;0.018;2022-07-18T17:29:55;3.78;;;2.75;;
42186;SDS011;27858;51.414;0.018;2022-07-18T17:32:23;2.53;;;2.33;;
42186;SDS011;27858;51.414;0.018;2022-07-18T17:34:51;3.30;;;2.78;;
42186;SDS011;27858;51.414;0.018;2022-07-18T17:37:19;2.03;;;1.92;;
42186;SDS011;27858;51.414;0.018;2022-07-18T17:39:47;3.95;;;2.83;;
42186;SDS011;27858;51.414;0.018;2022-07-18T17:42:19;3.13;;;2.80;;
42186;SDS011;27858;51.414;0.018;2022-07-18T17:44:47;2.92;;;2.67;;
42186;SDS011;27858;51.414;0.018;2022-07-18T17:47:14;2.78;;;2.58;;
42186;SDS011;27858;51.414;0.018;2022-07-18T17:49:41;6.57;;;2.72;;
42186;SDS011;27858;51.414;0.018;2022-07-18T17:52:09;3.03;;;2.53;;
42186;SDS011;27858;51.414;0.018;2022-07-18T17:54:36;4.32;;;3.25;;
42186;SDS011;27858;51.414;0.018;2022-07-18T17:57:05;3.55;;;2.60;;
42186;SDS011;27858;51.414;0.018;2022-07-18T17:59:32;3.45;;;2.90;;
42186;SDS011;27858;51.414;0.018;2022-07-18T18:01:59;2.72;;;2.53;;
42186;SDS011;27858;51.414;0.018;2022-07-18T18:04:26;3.20;;;2.53;;
42186;SDS011;27858;51.414;0.018;2022-07-18T18:06:53;2.28;;;2.15;;
42186;SDS011;27858;51.414;0.018;2022-07-18T18:09:20;2.90;;;2.47;;
42186;SDS011;27858;51.414;0.018;2022-07-18T18:11:47;2.95;;;2.60;;
42186;SDS011;27858;51.414;0.018;2022-07-18T18:14:14;10.00;;;2.88;;
42186;SDS011;27858;51.414;0.018;2022-07-18T18:16:41;3.00;;;2.75;;
42186;SDS011;27858;51.414;0.018;2022-07-18T18:19:10;3.17;;;2.85;;
42186;SDS011;27858;51.414;0.018;2022-07-18T18:21:37;5.40;;;3.50;;
42186;SDS011;27858;51.414;0.018;2022-07-18T18:24:04;3.65;;;3.05;;
42186;SDS011;27858;51.414;0.018;2022-07-18T18:26:31;2.72;;;2.50;;
42186;SDS011;27858;51.414;0.018;2022-07-18T18:28:58;3.55;;;3.25;;
42186;SDS011;27858;51.414;0.018;2022-07-18T18:31:25;4.05;;;2.88;;
42186;SDS011;27858;51.414;0.018;2022-07-18T18:33:52;7.63;;;2.90;;
42186;SDS011;27858;51.414;0.018;2022-07-18T18:36:18;4.45;;;2.35;;
42186;SDS011;27858;51.414;0.018;2022-07-18T18:38:45;2.78;;;2.53;;
42186;SDS011;27858;51.414;0.018;2022-07-18T18:41:12;2.80;;;2.55;;
42186;SDS011;27858;51.414;0.018;2022-07-18T18:43:39;3.55;;;3.15;;
42186;SDS011;27858;51.414;0.018;2022-07-18T18:46:06;3.88;;;3.08;;
42186;SDS011;27858;51.414;0.018;2022-07-18T18:48:33;5.63;;;2.33;;
42186;SDS011;27858;51.414;0.018;2022-07-18T18:51:03;5.57;;;2.13;;
42186;SDS011;27858;51.414;0.018;2022-07-18T18:53:30;1.90;;;1.80;;
42186;SDS011;27858;51.414;0.018;2022-07-18T18:55:57;1.48;;;1.30;;
42186;SDS011;27858;51.414;0.018;2022-07-18T18:58:24;2.55;;;1.35;;
42186;SDS011;27858;51.414;0.018;2022-07-18T19:00:55;1.57;;;1.37;;
42186;SDS011;27858;51.414;0.018;2022-07-18T19:03:23;1.73;;;1.63;;
42186;SDS011;27858;51.414;0.018;2022-07-18T19:05:49;2.38;;;1.27;;
42186;SDS011;27858;51.414;0.018;2022-07-18T19:08:17;2.63;;;1.70;;
42186;SDS011;27858;51.414;0.018;2022-07-18T19:10:44;3.45;;;1.38;;
42186;SDS011;27858;51.414;0.018;2022-07-18T19:13:11;3.78;;;1.73;;
42186;SDS011;27858;51.414;0.018;2022-07-18T19:15:38;6.53;;;1.58;;
42186;SDS011;27858;51.414;0.018;2022-07-18T19:18:05;1.80;;;1.30;;
42186;SDS011;27858;51.414;0.018;2022-07-18T19:20:32;1.85;;;1.52;;
42186;SDS011;27858;51.414;0.018;2022-07-18T19:22:59;7.05;;;1.67;;
42186;SDS011;27858;51.414;0.018;2022-07-18T19:25:26;2.00;;;1.38;;
42186;SDS011;27858;51.414;0.018;2022-07-18T19:27:55;2.53;;;1.52;;
42186;SDS011;27858;51.414;0.018;2022-07-18T19:30:24;2.47;;;1.30;;
42186;SDS011;27858;51.414;0.018;2022-07-18T19:32:51;3.25;;;1.95;;
42186;SDS011;27858;51.414;0.018;2022-07-18T19:35:18;1.92;;;1.70;;
42186;SDS011;27858;51.414;0.018;2022-07-18T19:37:45;3.90;;;2.55;;
42186;SDS011;27858;51.414;0.018;2022-07-18T19:40:12;4.20;;;2.95;;
42186;SDS011;27858;51.414;0.018;2022-07-18T19:42:39;6.88;;;3.92;;
42186;SDS011;27858;51.414;0.018;2022-07-18T19:45:06;5.97;;;4.07;;
42186;SDS011;27858;51.414;0.018;2022-07-18T19:47:34;5.88;;;3.53;;
42186;SDS011;27858;51.414;0.018;2022-07-18T19:50:01;4.32;;;2.50;;
42186;SDS011;27858;51.414;0.018;2022-07-18T19:52:29;3.92;;;2.20;;
42186;SDS011;27858;51.414;0.018;2022-07-18T19:54:57;1.98;;;1.77;;
42186;SDS011;27858;51.414;0.018;2022-07-18T19:57:24;3.72;;;1.92;;
42186;SDS011;27858;51.414;0.018;2022-07-18T19:59:51;1.60;;;1.50;;
42186;SDS011;27858;51.414;0.018;2022-07-18T20:02:18;1.55;;;1.45;;
42186;SDS011;27858;51.414;0.018;2022-07-18T20:04:45;1.73;;;1.50;;
42186;SDS011;27858;51.414;0.018;2022-07-18T20:07:11;2.85;;;1.80;;
42186;SDS011;27858;51.414;0.018;2022-07-18T20:09:38;4.97;;;2.10;;
42186;SDS011;27858;51.414;0.018;2022-07-18T20:12:05;2.55;;;1.55;;
42186;SDS011;27858;51.414;0.018;2022-07-18T20:14:32;3.17;;;1.65;;
42186;SDS011;27858;51.414;0.018;2022-07-18T20:16:59;2.40;;;1.55;;
42186;SDS011;27858;51.414;0.018;2022-07-18T20:19:26;2.75;;;1.23;;
42186;SDS011;27858;51.414;0.018;2022-07-18T20:21:53;1.60;;;1.50;;
42186;SDS011;27858;51.414;0.018;2022-07-18T20:24:22;3.50;;;1.63;;
42186;SDS011;27858;51.414;0.018;2022-07-18T20:26:49;1.80;;;1.70;;
42186;SDS011;27858;51.414;0.018;2022-07-18T20:29:15;4.38;;;2.28;;
42186;SDS011;27858;51.414;0.018;2022-07-18T20:31:42;2.00;;;1.45;;
42186;SDS011;27858;51.414;0.018;2022-07-18T20:34:09;1.58;;;1.48;;
42186;SDS011;27858;51.414;0.018;2022-07-18T20:36:36;2.85;;;1.55;;
42186;SDS011;27858;51.414;0.018;2022-07-18T20:39:10;3.88;;;1.73;;
42186;SDS011;27858;51.414;0.018;2022-07-18T20:41:37;4.38;;;2.20;;
42186;SDS011;27858;51.414;0.018;2022-07-18T20:44:04;1.90;;;1.60;;
42186;SDS011;27858;51.414;0.018;2022-07-18T20:46:30;1.77;;;1.48;;
42186;SDS011;27858;51.414;0.018;2022-07-18T20:48:57;2.80;;;2.05;;
42186;SDS011;27858;51.414;0.018;2022-07-18T20:51:24;1.63;;;1.50;;
42186;SDS011;27858;51.414;0.018;2022-07-18T20:53:51;1.52;;;1.42;;
42186;SDS011;27858;51.414;0.018;2022-07-18T20:56:18;2.35;;;1.52;;
42186;SDS011;27858;51.414;0.018;2022-07-18T20:58:45;2.28;;;1.40;;
42186;SDS011;27858;51.414;0.018;2022-07-18T21:01:12;2.42;;;1.80;;
42186;SDS011;27858;51.414;0.018;2022-07-18T21:03:41;2.35;;;1.55;;
42186;SDS011;27858;51.414;0.018;2022-07-18T21:06:08;1.92;;;1.70;;
42186;SDS011;27858;51.414;0.018;2022-07-18T21:08:36;2.63;;;1.58;;
42186;SDS011;27858;51.414;0.018;2022-07-18T21:11:06;2.00;;;1.55;;
42186;SDS011;27858;51.414;0.018;2022-07-18T21:13:35;1.95;;;1.65;;
42186;SDS011;27858;51.414;0.018;2022-07-18T21:16:03;2.25;;;1.40;;
42186;SDS011;27858;51.414;0.018;2022-07-18T21:18:30;2.72;;;1.80;;
42186;SDS011;27858;51.414;0.018;2022-07-18T21:20:57;3.67;;;1.98;;
42186;SDS011;27858;51.414;0.018;2022-07-18T21:23:23;1.73;;;1.40;;
42186;SDS011;27858;51.414;0.018;2022-07-18T21:25:50;1.98;;;1.88;;
42186;SDS011;27858;51.414;0.018;2022-07-18T21:28:18;2.13;;;1.80;;
42186;SDS011;27858;51.414;0.018;2022-07-18T21:30:45;2.17;;;1.92;;
42186;SDS011;27858;51.414;0.018;2022-07-18T21:33:11;1.85;;;1.63;;
42186;SDS011;27858;51.414;0.018;2022-07-18T21:35:38;1.83;;;1.73;;
42186;SDS011;27858;51.414;0.018;2022-07-18T21:38:05;2.80;;;2.00;;
42186;SDS011;27858;51.414;0.018;2022-07-18T21:40:33;1.92;;;1.60;;
42186;SDS011;27858;51.414;0.018;2022-07-18T21:43:00;4.13;;;2.20;;
42186;SDS011;27858;51.414;0.018;2022-07-18T21:45:27;3.45;;;1.85;;
42186;SDS011;27858;51.414;0.018;2022-07-18T21:47:54;3.28;;;2.00;;
42186;SDS011;27858;51.414;0.018;2022-07-18T21:50:21;4.90;;;2.13;;
42186;SDS011;27858;51.414;0.018;2022-07-18T21:52:48;1.73;;;1.55;;
42186;SDS011;27858;51.414;0.018;2022-07-18T21:55:15;3.25;;;1.70;;
42186;SDS011;27858;51.414;0.018;2022-07-18T21:57:42;1.52;;;1.42;;
42186;SDS011;27858;51.414;0.018;2022-07-18T22:00:10;3.97;;;1.92;;
42186;SDS011;27858;51.414;0.018;2022-07-18T22:02:39;3.10;;;1.60;;
42186;SDS011;27858;51.414;0.018;2022-07-18T22:05:07;1.55;;;1.45;;
42186;SDS011;27858;51.414;0.018;2022-07-18T22:07:34;3.65;;;1.80;;
42186;SDS011;27858;51.414;0.018;2022-07-18T22:10:09;5.45;;;1.95;;
42186;SDS011;27858;51.414;0.018;2022-07-18T22:12:36;5.32;;;1.52;;
42186;SDS011;27858;51.414;0.018;2022-07-18T22:15:05;8.45;;;1.80;;
42186;SDS011;27858;51.414;0.018;2022-07-18T22:17:34;1.67;;;1.58;;
42186;SDS011;27858;51.414;0.018;2022-07-18T22:20:01;2.80;;;1.75;;
42186;SDS011;27858;51.414;0.018;2022-07-18T22:22:28;2.10;;;1.88;;
42186;SDS011;27858;51.414;0.018;2022-07-18T22:24:55;1.90;;;1.60;;
42186;SDS011;27858;51.414;0.018;2022-07-18T22:27:23;4.78;;;2.10;;
42186;SDS011;27858;51.414;0.018;2022-07-18T22:29:50;2.53;;;1.70;;
42186;SDS011;27858;51.414;0.018;2022-07-18T22:32:17;2.78;;;1.55;;
42186;SDS011;27858;51.414;0.018;2022-07-18T22:34:43;1.33;;;1.30;;
42186;SDS011;27858;51.414;0.018;2022-07-18T22:37:10;1.50;;;1.40;;
42186;SDS011;27858;51.414;0.018;2022-07-18T22:39:37;3.03;;;1.70;;
42186;SDS011;27858;51.414;0.018;2022-07-18T22:42:04;3.58;;;1.23;;
42186;SDS011;27858;51.414;0.018;2022-07-18T22:44:31;1.45;;;1.13;;
42186;SDS011;27858;51.414;0.018;2022-07-18T22:46:58;3.72;;;1.20;;
42186;SDS011;27858;51.414;0.018;2022-07-18T22:49:27;1.55;;;1.40;;
42186;SDS011;27858;51.414;0.018;2022-07-18T22:51:54;1.70;;;1.50;;
42186;SDS011;27858;51.414;0.018;2022-07-18T22:54:21;8.75;;;1.50;;
42186;SDS011;27858;51.414;0.018;2022-07-18T22:56:48;3.55;;;1.08;;
42186;SDS011;27858;51.414;0.018;2022-07-18T22:59:15;2.85;;;1.45;;
42186;SDS011;27858;51.414;0.018;2022-07-18T23:01:42;3.08;;;1.17;;
42186;SDS011;27858;51.414;0.018;2022-07-18T23:04:09;1.33;;;1.23;;
42186;SDS011;27858;51.414;0.018;2022-07-18T23:06:37;11.32;;;1.55;;
42186;SDS011;27858;51.414;0.018;2022-07-18T23:09:04;6.82;;;1.70;;
42186;SDS011;27858;51.414;0.018;2022-07-18T23:11:31;2.15;;;1.20;;
42186;SDS011;27858;51.414;0.018;2022-07-18T23:13:58;2.47;;;1.35;;
42186;SDS011;27858;51.414;0.018;2022-07-18T23:16:25;5.00;;;1.58;;
42186;SDS011;27858;51.414;0.018;2022-07-18T23:18:52;1.85;;;1.27;;
42186;SDS011;27858;51.414;0.018;2022-07-18T23:21:19;2.95;;;1.55;;
42186;SDS011;27858;51.414;0.018;2022-07-18T23:23:46;3.53;;;1.30;;
42186;SDS011;27858;51.414;0.018;2022-07-18T23:26:13;2.15;;;1.60;;
42186;SDS011;27858;51.414;0.018;2022-07-18T23:28:40;2.80;;;1.58;;
42186;SDS011;27858;51.414;0.018;2022-07-18T23:31:07;1.30;;;1.20;;
42186;SDS011;27858;51.414;0.018;2022-07-18T23:33:34;1.48;;;1.38;;
42186;SDS011;27858;51.414;0.018;2022-07-18T23:36:01;3.83;;;1.80;;
42186;SDS011;27858;51.414;0.018;2022-07-18T23:38:28;4.97;;;1.48;;
42186;SDS011;27858;51.414;0.018;2022-07-18T23:40:55;1.02;;;1.02;;
42186;SDS011;27858;51.414;0.018;2022-07-18T23:43:23;1.73;;;1.27;;
42186;SDS011;27858;51.414;0.018;2022-07-18T23:45:50;2.33;;;1.30;;
42186;SDS011;27858;51.414;0.018;2022-07-18T23:48:16;1.73;;;1.42;;
42186;SDS011;27858;51.414;0.018;2022-07-18T23:50:43;2.53;;;1.55;;
42186;SDS011;27858;51.414;0.018;2022-07-18T23:53:10;1.88;;;1.25;;
42186;SDS011;27858;51.414;0.018;2022-07-18T23:55:37;1.73;;;1.40;;
42186;SDS011;27858;51.414;0.018;2022-07-18T23:58:05;1.20;;;1.10;;
